Time;durP1;ratioP1;P1;durP2;ratioP2;P2;SDS_P1;SDS_P2;PMS_P1;PMS_P2;Temp;Humidity;BMP_temperature;BMP_pressure;BME280_temperature;BME280_humidity;BME280_pressure;Samples;Min_cycle;Max_cycle;Signal;HPM_P1;HPM_P2
2022/09/16 00:00:50;;;;;;;;;;;16.00;85.30;;;;;;5089014;28;19912;-66
2022/09/16 00:03:16;;;;;;;;;;;16.00;85.30;;;;;;5083614;28;19912;-66
2022/09/16 00:05:43;;;;;;;;;;;16.00;85.40;;;;;;5086704;28;19912;-66
2022/09/16 00:08:08;;;;;;;;;;;16.00;85.40;;;;;;5084038;28;19920;-66
2022/09/16 00:10:34;;;;;;;;;;;16.00;85.40;;;;;;5086502;28;19920;-66
2022/09/16 00:13:00;;;;;;;;;;;16.00;85.40;;;;;;5082233;28;19951;-66
2022/09/16 00:15:25;;;;;;;;;;;15.90;85.30;;;;;;5087232;28;19990;-66
2022/09/16 00:17:51;;;;;;;;;;;16.00;85.40;;;;;;5084412;28;19919;-66
2022/09/16 00:20:16;;;;;;;;;;;16.00;85.40;;;;;;5085776;28;20160;-66
2022/09/16 00:22:42;;;;;;;;;;;16.00;85.50;;;;;;5084335;28;19961;-66
2022/09/16 00:25:07;;;;;;;;;;;15.90;85.40;;;;;;5087494;28;19916;-66
2022/09/16 00:27:33;;;;;;;;;;;15.90;85.40;;;;;;5083692;28;19958;-66
2022/09/16 00:29:58;;;;;;;;;;;16.00;85.40;;;;;;5085524;28;19942;-66
2022/09/16 00:32:24;;;;;;;;;;;15.90;85.50;;;;;;5084358;28;20573;-66
2022/09/16 00:34:50;;;;;;;;;;;15.90;86.10;;;;;;5085647;28;19919;-66
2022/09/16 00:37:15;;;;;;;;;;;15.90;85.50;;;;;;5085393;28;19912;-66
2022/09/16 00:39:41;;;;;;;;;;;15.90;85.50;;;;;;5081306;28;20049;-66
2022/09/16 00:42:10;;;;;;;;;;;15.90;85.50;;;;;;5085885;28;19985;-66
2022/09/16 00:44:54;;;;;;;;;;;15.90;85.60;;;;;;5082239;28;19923;-66
2022/09/16 00:47:24;;;;;;;;;;;15.90;85.50;;;;;;5088020;28;19920;-66
2022/09/16 00:49:50;;;;;;;;;;;15.90;85.60;;;;;;5080789;28;19932;-66
2022/09/16 00:52:17;;;;;;;;;;;15.90;85.60;;;;;;5086010;28;20503;-66
2022/09/16 00:54:42;;;;;;;;;;;15.90;85.60;;;;;;5082296;28;19996;-66
2022/09/16 00:57:09;;;;;;;;;;;15.90;85.60;;;;;;5085589;28;19916;-66
2022/09/16 00:59:37;;;;;;;;;;;15.80;85.60;;;;;;5082950;28;19916;-66
2022/09/16 01:02:07;;;;;;;;;;;15.90;85.70;;;;;;5085689;28;19928;-66
2022/09/16 01:04:38;;;;;;;;;;;15.80;85.50;;;;;;5083406;28;19923;-66
2022/09/16 01:07:04;;;;;;;;;;;15.80;85.60;;;;;;5086314;28;20649;-66
2022/09/16 01:09:30;;;;;;;;;;;15.80;85.60;;;;;;5082365;28;19927;-66
2022/09/16 01:11:55;;;;;;;;;;;15.80;85.60;;;;;;5087166;28;20014;-66
2022/09/16 01:17:09;;;;;;;;;;;15.80;85.80;;;;;;5084881;28;20276;-66
2022/09/16 01:19:50;;;;;;;;;;;15.80;85.60;;;;;;5082226;28;19942;-66
2022/09/16 01:22:15;;;;;;;;;;;15.80;85.70;;;;;;5086135;28;19919;-66
2022/09/16 01:24:50;;;;;;;;;;;15.80;85.80;;;;;;5082790;28;19916;-66
2022/09/16 01:27:34;;;;;;;;;;;15.80;85.80;;;;;;5085413;28;20384;-66
2022/09/16 01:30:05;;;;;;;;;;;15.80;85.80;;;;;;5080987;28;19927;-66
2022/09/16 01:32:31;;;;;;;;;;;15.70;86.30;;;;;;5084392;28;19919;-66
2022/09/16 01:35:07;;;;;;;;;;;15.70;85.60;;;;;;5084616;28;20277;-66
2022/09/16 01:37:38;;;;;;;;;;;15.70;85.80;;;;;;5085898;28;19942;-66
2022/09/16 01:40:24;;;;;;;;;;;15.70;85.80;;;;;;5082408;28;19922;-66
2022/09/16 01:42:53;;;;;;;;;;;15.70;86.40;;;;;;5084672;28;19916;-66
2022/09/16 01:45:22;;;;;;;;;;;15.70;85.80;;;;;;5081967;28;19918;-66
2022/09/16 01:47:56;;;;;;;;;;;15.70;85.90;;;;;;5085245;28;20130;-66
2022/09/16 01:50:24;;;;;;;;;;;15.70;85.60;;;;;;5083165;28;19916;-66
2022/09/16 01:53:10;;;;;;;;;;;15.70;85.90;;;;;;5086405;28;20022;-66
2022/09/16 01:55:35;;;;;;;;;;;15.70;85.90;;;;;;5081777;28;19923;-66
2022/09/16 01:58:16;;;;;;;;;;;15.70;86.00;;;;;;5084706;28;19912;-66
2022/09/16 02:00:42;;;;;;;;;;;15.70;85.90;;;;;;5082544;28;20399;-66
2022/09/16 02:03:10;;;;;;;;;;;15.60;85.80;;;;;;5087521;28;19919;-66
2022/09/16 02:05:39;;;;;;;;;;;15.60;85.90;;;;;;5085805;28;19915;-65
2022/09/16 02:08:08;;;;;;;;;;;15.60;85.90;;;;;;5084977;28;19916;-66
2022/09/16 02:10:45;;;;;;;;;;;15.60;85.70;;;;;;5089830;28;20000;-66
2022/09/16 02:13:31;;;;;;;;;;;15.60;85.90;;;;;;5085464;28;19920;-66
2022/09/16 02:15:59;;;;;;;;;;;15.60;85.90;;;;;;5083240;28;19912;-66
2022/09/16 02:18:27;;;;;;;;;;;15.60;85.90;;;;;;5085607;28;19943;-66
2022/09/16 02:20:54;;;;;;;;;;;15.60;85.90;;;;;;5087984;28;19920;-66
2022/09/16 02:23:22;;;;;;;;;;;15.60;85.90;;;;;;5086715;28;19970;-66
2022/09/16 02:25:48;;;;;;;;;;;15.60;86.00;;;;;;5088304;28;19908;-66
2022/09/16 02:28:19;;;;;;;;;;;15.60;86.00;;;;;;5086616;28;19951;-66
2022/09/16 02:30:47;;;;;;;;;;;15.60;86.00;;;;;;5087587;28;19912;-66
2022/09/16 02:33:14;;;;;;;;;;;15.60;85.70;;;;;;5086242;28;19916;-66
2022/09/16 02:35:43;;;;;;;;;;;15.60;85.90;;;;;;5087835;28;19989;-66
2022/09/16 02:38:16;;;;;;;;;;;15.60;85.90;;;;;;5085551;28;20003;-66
2022/09/16 02:40:47;;;;;;;;;;;15.60;85.90;;;;;;5087463;28;19958;-66
2022/09/16 02:43:13;;;;;;;;;;;15.60;86.00;;;;;;5085465;28;20273;-66
2022/09/16 02:45:41;;;;;;;;;;;15.60;86.00;;;;;;5087726;28;19977;-66
2022/09/16 02:48:14;;;;;;;;;;;15.50;86.00;;;;;;5085525;28;19922;-66
2022/09/16 02:50:45;;;;;;;;;;;15.60;86.00;;;;;;5086367;28;19912;-66
2022/09/16 02:53:10;;;;;;;;;;;15.50;86.00;;;;;;5085444;28;20008;-66
2022/09/16 02:55:43;;;;;;;;;;;15.50;86.00;;;;;;5087409;28;19965;-66
2022/09/16 02:58:09;;;;;;;;;;;15.50;86.00;;;;;;5081042;28;19942;-66
2022/09/16 03:00:37;;;;;;;;;;;15.50;85.90;;;;;;5087454;28;19916;-66
2022/09/16 03:03:03;;;;;;;;;;;15.50;86.00;;;;;;5085633;28;19912;-66
2022/09/16 03:05:28;;;;;;;;;;;15.50;86.00;;;;;;5087271;28;19947;-66
2022/09/16 03:07:54;;;;;;;;;;;15.50;86.10;;;;;;5088045;28;19912;-66
2022/09/16 03:10:22;;;;;;;;;;;15.50;86.00;;;;;;5084747;28;19989;-66
2022/09/16 03:13:00;;;;;;;;;;;15.50;86.10;;;;;;5083041;28;19916;-66
2022/09/16 03:15:31;;;;;;;;;;;15.50;85.80;;;;;;5084582;28;20531;-66
2022/09/16 03:18:17;;;;;;;;;;;15.50;86.00;;;;;;5088074;28;19966;-66
2022/09/16 03:20:55;;;;;;;;;;;15.40;86.00;;;;;;5084085;28;20456;-66
2022/09/16 03:23:21;;;;;;;;;;;15.40;86.10;;;;;;5087157;28;20025;-66
2022/09/16 03:25:52;;;;;;;;;;;15.40;86.00;;;;;;5084438;28;20443;-66
2022/09/16 03:28:26;;;;;;;;;;;15.40;86.00;;;;;;5087140;28;19962;-66
2022/09/16 03:30:58;;;;;;;;;;;15.40;86.10;;;;;;5084003;28;19972;-66
2022/09/16 03:33:32;;;;;;;;;;;15.40;86.10;;;;;;5087625;28;20010;-66
2022/09/16 03:36:01;;;;;;;;;;;15.40;86.10;;;;;;5100818;27;20269;-66
2022/09/16 03:38:27;;;;;;;;;;;15.40;85.90;;;;;;5086689;28;19914;-66
2022/09/16 03:40:52;;;;;;;;;;;15.40;86.10;;;;;;5081038;28;19988;-66
2022/09/16 03:43:18;;;;;;;;;;;15.40;86.10;;;;;;5087227;28;19916;-66
2022/09/16 03:45:43;;;;;;;;;;;15.40;86.20;;;;;;5083983;28;20035;-66
2022/09/16 03:48:09;;;;;;;;;;;15.40;86.20;;;;;;5087032;28;19912;-66
2022/09/16 03:50:35;;;;;;;;;;;15.40;86.10;;;;;;5083117;28;19920;-66
2022/09/16 03:53:01;;;;;;;;;;;15.40;86.20;;;;;;5087015;28;19920;-66
2022/09/16 03:55:26;;;;;;;;;;;15.40;86.20;;;;;;5084434;28;20532;-66
2022/09/16 03:57:52;;;;;;;;;;;15.40;86.20;;;;;;5079990;28;19912;-66
2022/09/16 04:00:18;;;;;;;;;;;15.40;86.10;;;;;;5083439;28;19919;-66
2022/09/16 04:02:43;;;;;;;;;;;15.40;86.20;;;;;;5085081;28;19918;-66
2022/09/16 04:05:09;;;;;;;;;;;15.40;86.20;;;;;;5085942;28;20409;-66
2022/09/16 04:07:34;;;;;;;;;;;15.40;86.30;;;;;;5085406;28;20015;-66
2022/09/16 04:10:00;;;;;;;;;;;15.30;86.10;;;;;;5081244;28;19935;-66
2022/09/16 04:12:26;;;;;;;;;;;15.30;86.20;;;;;;5083977;28;20357;-66
2022/09/16 04:14:52;;;;;;;;;;;15.30;86.30;;;;;;5086058;28;19923;-66
2022/09/16 04:17:17;;;;;;;;;;;15.30;86.20;;;;;;5083708;28;19912;-66
2022/09/16 04:19:43;;;;;;;;;;;15.30;86.30;;;;;;5085791;28;20638;-66
2022/09/16 04:22:08;;;;;;;;;;;15.30;86.30;;;;;;5084182;28;19916;-66
2022/09/16 04:24:34;;;;;;;;;;;15.30;86.20;;;;;;5085728;28;20523;-66
2022/09/16 04:27:00;;;;;;;;;;;15.30;86.30;;;;;;5083623;28;19937;-66
2022/09/16 04:29:26;;;;;;;;;;;15.30;86.30;;;;;;5085600;28;20458;-66
2022/09/16 04:31:52;;;;;;;;;;;15.30;86.20;;;;;;5083698;28;19924;-66
2022/09/16 04:34:18;;;;;;;;;;;15.30;86.20;;;;;;5085091;28;19915;-66
2022/09/16 04:36:43;;;;;;;;;;;15.30;86.30;;;;;;5085129;28;19915;-66
2022/09/16 04:39:09;;;;;;;;;;;15.20;86.30;;;;;;5087523;28;20062;-66
2022/09/16 04:41:34;;;;;;;;;;;15.30;86.30;;;;;;5085751;28;19912;-66
2022/09/16 04:44:00;;;;;;;;;;;15.30;86.20;;;;;;5083442;28;19916;-66
2022/09/16 04:46:26;;;;;;;;;;;15.20;86.10;;;;;;5085264;28;19994;-66
2022/09/16 04:48:52;;;;;;;;;;;15.30;86.20;;;;;;5082932;28;20403;-66
2022/09/16 04:51:18;;;;;;;;;;;15.20;86.20;;;;;;5084323;28;19911;-66
2022/09/16 04:53:44;;;;;;;;;;;15.20;86.70;;;;;;5083570;28;20277;-66
2022/09/16 04:56:14;;;;;;;;;;;15.20;86.30;;;;;;5085319;28;20060;-66
2022/09/16 04:58:41;;;;;;;;;;;15.20;86.20;;;;;;5081572;28;20351;-66
2022/09/16 05:01:11;;;;;;;;;;;15.20;86.10;;;;;;5084924;28;19942;-66
2022/09/16 05:03:37;;;;;;;;;;;15.20;86.20;;;;;;5079966;28;19928;-66
2022/09/16 05:06:04;;;;;;;;;;;15.20;86.30;;;;;;5084704;28;19912;-66
2022/09/16 05:08:29;;;;;;;;;;;15.20;86.30;;;;;;5082596;28;19916;-66
2022/09/16 05:10:55;;;;;;;;;;;15.20;86.20;;;;;;5085495;28;19920;-66
2022/09/16 05:13:22;;;;;;;;;;;15.20;86.30;;;;;;5083310;28;19919;-66
2022/09/16 05:15:47;;;;;;;;;;;15.20;86.30;;;;;;5084900;28;19916;-66
2022/09/16 05:18:12;;;;;;;;;;;15.20;86.30;;;;;;5082809;28;19916;-66
2022/09/16 05:20:38;;;;;;;;;;;15.20;86.30;;;;;;5084779;28;19947;-66
2022/09/16 05:23:04;;;;;;;;;;;15.20;86.30;;;;;;5085766;28;20302;-66
2022/09/16 05:25:29;;;;;;;;;;;15.20;86.30;;;;;;5082173;28;19919;-66
2022/09/16 05:27:55;;;;;;;;;;;15.20;86.20;;;;;;5086393;28;19922;-66
2022/09/16 05:30:20;;;;;;;;;;;15.20;86.30;;;;;;5082079;28;19916;-66
2022/09/16 05:32:45;;;;;;;;;;;15.10;86.10;;;;;;5084639;28;19969;-66
2022/09/16 05:35:12;;;;;;;;;;;15.20;86.30;;;;;;5081794;28;19912;-66
2022/09/16 05:37:37;;;;;;;;;;;15.20;86.30;;;;;;5084826;28;19912;-66
2022/09/16 05:40:03;;;;;;;;;;;15.20;86.30;;;;;;5082170;28;19908;-66
2022/09/16 05:42:28;;;;;;;;;;;15.10;86.10;;;;;;5085425;28;19978;-66
2022/09/16 05:44:54;;;;;;;;;;;15.20;86.30;;;;;;5082374;28;19951;-66
2022/09/16 05:47:19;;;;;;;;;;;15.20;86.30;;;;;;5073161;28;19919;-66
2022/09/16 05:49:45;;;;;;;;;;;15.10;86.20;;;;;;5081900;28;19916;-66
2022/09/16 05:52:10;;;;;;;;;;;15.10;86.20;;;;;;5083598;28;20359;-66
2022/09/16 05:54:36;;;;;;;;;;;15.10;86.20;;;;;;5081896;28;19919;-66
2022/09/16 05:57:02;;;;;;;;;;;15.10;86.20;;;;;;5085392;28;19947;-66
2022/09/16 05:59:28;;;;;;;;;;;15.10;86.20;;;;;;5086552;28;20568;-66
2022/09/16 06:01:54;;;;;;;;;;;15.10;86.30;;;;;;5081876;28;19916;-66
2022/09/16 06:04:19;;;;;;;;;;;15.10;86.20;;;;;;5083663;28;19919;-66
2022/09/16 06:06:45;;;;;;;;;;;15.10;86.20;;;;;;5081704;28;19923;-66
2022/09/16 06:09:13;;;;;;;;;;;15.10;86.00;;;;;;5083299;28;19922;-66
2022/09/16 06:11:39;;;;;;;;;;;15.10;86.10;;;;;;5081324;28;20284;-66
2022/09/16 06:14:05;;;;;;;;;;;15.10;86.00;;;;;;5084457;28;20007;-66
2022/09/16 06:16:31;;;;;;;;;;;15.10;85.90;;;;;;5081702;28;20007;-66
2022/09/16 06:18:58;;;;;;;;;;;15.10;86.00;;;;;;5083349;28;20598;-66
2022/09/16 06:21:23;;;;;;;;;;;15.20;86.10;;;;;;5081326;28;19916;-66
2022/09/16 06:23:49;;;;;;;;;;;15.20;86.10;;;;;;5083492;28;19924;-66
2022/09/16 06:26:19;;;;;;;;;;;15.10;85.70;;;;;;5081883;28;20428;-66
2022/09/16 06:28:45;;;;;;;;;;;15.20;86.00;;;;;;5084123;28;20010;-66
2022/09/16 06:31:15;;;;;;;;;;;15.20;86.00;;;;;;5081796;28;19930;-66
2022/09/16 06:33:40;;;;;;;;;;;15.20;85.80;;;;;;5084595;28;19923;-66
2022/09/16 06:36:11;;;;;;;;;;;15.20;85.90;;;;;;5082047;28;19912;-66
2022/09/16 06:38:36;;;;;;;;;;;15.20;85.80;;;;;;5081045;28;19927;-66
2022/09/16 06:41:03;;;;;;;;;;;15.20;85.90;;;;;;5083564;28;19908;-66
2022/09/16 06:43:29;;;;;;;;;;;15.20;85.70;;;;;;5082390;28;19926;-66
2022/09/16 06:45:56;;;;;;;;;;;15.20;85.70;;;;;;5086007;28;19920;-66
2022/09/16 06:48:21;;;;;;;;;;;15.20;85.60;;;;;;5085429;28;19927;-66
2022/09/16 06:50:47;;;;;;;;;;;15.20;85.60;;;;;;5087255;28;20265;-66
2022/09/16 06:53:12;;;;;;;;;;;15.30;85.60;;;;;;5085600;28;19920;-66
2022/09/16 06:55:38;;;;;;;;;;;15.30;85.70;;;;;;5087732;28;20431;-66
2022/09/16 06:58:03;;;;;;;;;;;15.30;85.60;;;;;;5085873;28;20057;-65
2022/09/16 07:00:29;;;;;;;;;;;15.30;85.50;;;;;;5086633;28;19916;-66
2022/09/16 07:02:54;;;;;;;;;;;15.30;85.50;;;;;;5084759;28;19923;-66
2022/09/16 07:05:20;;;;;;;;;;;15.40;85.40;;;;;;5087399;28;20790;-66
2022/09/16 07:07:45;;;;;;;;;;;15.40;85.50;;;;;;5085536;28;19916;-66
2022/09/16 07:10:11;;;;;;;;;;;15.40;85.50;;;;;;5086831;28;20002;-66
2022/09/16 07:12:36;;;;;;;;;;;15.40;85.50;;;;;;5084976;28;19959;-66
2022/09/16 07:15:02;;;;;;;;;;;15.40;85.60;;;;;;5086749;28;20384;-66
2022/09/16 07:17:27;;;;;;;;;;;15.40;85.50;;;;;;5087569;28;19908;-66
2022/09/16 07:19:53;;;;;;;;;;;15.40;85.40;;;;;;5084257;28;19925;-66
2022/09/16 07:22:18;;;;;;;;;;;15.50;85.30;;;;;;5086891;28;19927;-66
2022/09/16 07:24:44;;;;;;;;;;;15.50;85.30;;;;;;5084909;28;20586;-66
2022/09/16 07:27:10;;;;;;;;;;;15.50;85.30;;;;;;5086891;28;19922;-66
2022/09/16 07:29:36;;;;;;;;;;;15.60;85.10;;;;;;5084869;28;19920;-66
2022/09/16 07:32:02;;;;;;;;;;;15.60;85.00;;;;;;5085396;28;20376;-66
2022/09/16 07:34:27;;;;;;;;;;;15.60;85.10;;;;;;5084861;28;20617;-66
2022/09/16 07:36:53;;;;;;;;;;;15.60;85.00;;;;;;5086725;28;19913;-66
2022/09/16 07:39:19;;;;;;;;;;;15.60;85.00;;;;;;5080470;28;19920;-66
2022/09/16 07:41:45;;;;;;;;;;;15.60;85.00;;;;;;5086088;28;19919;-66
2022/09/16 07:44:12;;;;;;;;;;;15.60;85.00;;;;;;5086537;28;19927;-66
2022/09/16 07:46:38;;;;;;;;;;;15.60;85.20;;;;;;5086482;28;19919;-66
2022/09/16 07:49:04;;;;;;;;;;;15.60;85.00;;;;;;5084311;28;19912;-66
2022/09/16 07:51:30;;;;;;;;;;;15.70;85.00;;;;;;5085804;28;19912;-66
2022/09/16 07:53:58;;;;;;;;;;;15.70;84.70;;;;;;5086970;28;19912;-66
2022/09/16 07:56:24;;;;;;;;;;;15.70;84.80;;;;;;5083337;28;19916;-66
2022/09/16 07:58:50;;;;;;;;;;;15.70;84.90;;;;;;5084890;28;19912;-66
2022/09/16 08:01:16;;;;;;;;;;;15.80;84.80;;;;;;5084730;28;19922;-66
2022/09/16 08:03:43;;;;;;;;;;;15.80;84.70;;;;;;5086984;28;19915;-66
2022/09/16 08:06:10;;;;;;;;;;;15.80;84.70;;;;;;5084009;28;19939;-66
2022/09/16 08:08:36;;;;;;;;;;;15.80;84.60;;;;;;5086436;28;19909;-66
2022/09/16 08:11:02;;;;;;;;;;;15.80;84.50;;;;;;5082997;28;19931;-66
2022/09/16 08:13:29;;;;;;;;;;;15.80;84.50;;;;;;5086864;28;20337;-66
2022/09/16 08:15:58;;;;;;;;;;;15.90;84.60;;;;;;5083713;28;19916;-66
2022/09/16 08:18:23;;;;;;;;;;;15.80;84.40;;;;;;5086586;28;19938;-66
2022/09/16 08:20:49;;;;;;;;;;;15.90;84.50;;;;;;5083164;28;20405;-66
2022/09/16 08:23:14;;;;;;;;;;;15.90;84.30;;;;;;5086429;28;19916;-66
2022/09/16 08:25:41;;;;;;;;;;;16.00;84.10;;;;;;5083353;28;20360;-66
2022/09/16 08:28:13;;;;;;;;;;;16.00;84.00;;;;;;5105514;27;19927;-66
2022/09/16 08:30:39;;;;;;;;;;;16.00;84.10;;;;;;5083036;28;19966;-66
2022/09/16 08:33:05;;;;;;;;;;;16.10;84.00;;;;;;5086609;28;19971;-66
2022/09/16 08:35:30;;;;;;;;;;;16.00;83.90;;;;;;5086734;28;19992;-66
2022/09/16 08:37:56;;;;;;;;;;;16.00;84.10;;;;;;5083355;28;19916;-66
2022/09/16 08:40:23;;;;;;;;;;;16.00;84.10;;;;;;5085523;28;19922;-66
2022/09/16 08:42:56;;;;;;;;;;;16.00;83.90;;;;;;5083343;28;20500;-66
2022/09/16 08:45:34;;;;;;;;;;;16.00;84.10;;;;;;5085954;28;19962;-66
2022/09/16 08:48:03;;;;;;;;;;;15.90;84.20;;;;;;5083971;28;20416;-66
2022/09/16 08:50:31;;;;;;;;;;;16.00;84.10;;;;;;5084264;28;19908;-66
2022/09/16 08:52:58;;;;;;;;;;;16.00;83.30;;;;;;5083731;28;19940;-66
2022/09/16 08:55:30;;;;;;;;;;;16.10;83.60;;;;;;5085350;28;20578;-66
2022/09/16 08:58:12;;;;;;;;;;;16.10;83.70;;;;;;5083130;28;19928;-66
2022/09/16 09:00:38;;;;;;;;;;;16.20;83.30;;;;;;5081294;28;19951;-66
2022/09/16 09:03:22;;;;;;;;;;;16.20;83.50;;;;;;5082944;28;20614;-66
2022/09/16 09:05:55;;;;;;;;;;;16.20;83.50;;;;;;5082448;28;19916;-66
2022/09/16 09:08:23;;;;;;;;;;;16.20;83.40;;;;;;5079892;28;19920;-66
2022/09/16 09:10:56;;;;;;;;;;;16.20;83.00;;;;;;5080491;28;19957;-66
2022/09/16 09:13:27;;;;;;;;;;;16.30;83.00;;;;;;5079966;28;20376;-65
2022/09/16 09:15:59;;;;;;;;;;;16.30;82.80;;;;;;5081868;28;19919;-66
2022/09/16 09:18:38;;;;;;;;;;;16.40;82.70;;;;;;5081748;28;20054;-65
2022/09/16 09:21:18;;;;;;;;;;;16.40;82.40;;;;;;5077398;28;19916;-66
2022/09/16 09:23:46;;;;;;;;;;;16.40;82.50;;;;;;5083126;28;20559;-66
2022/09/16 09:26:19;;;;;;;;;;;16.50;82.40;;;;;;5085130;28;19938;-66
2022/09/16 09:29:03;;;;;;;;;;;16.50;82.80;;;;;;5080063;28;20010;-66
2022/09/16 09:31:40;;;;;;;;;;;16.50;82.00;;;;;;5084396;28;19912;-66
2022/09/16 09:34:08;;;;;;;;;;;16.40;82.00;;;;;;5070624;28;20398;-66
2022/09/16 09:36:54;;;;;;;;;;;16.40;82.50;;;;;;5084096;28;19923;-66
2022/09/16 09:39:23;;;;;;;;;;;16.40;82.60;;;;;;5078285;28;19920;-66
2022/09/16 09:41:54;;;;;;;;;;;16.50;82.40;;;;;;5083396;28;19994;-66
2022/09/16 09:44:35;;;;;;;;;;;16.40;82.30;;;;;;5082863;28;20022;-66
2022/09/16 09:47:04;;;;;;;;;;;16.40;82.20;;;;;;5084622;28;20389;-66
2022/09/16 09:49:53;;;;;;;;;;;16.40;82.60;;;;;;5083982;28;19920;-66
2022/09/16 09:52:25;;;;;;;;;;;16.40;82.60;;;;;;5073030;28;19912;-66
2022/09/16 09:54:51;;;;;;;;;;;16.40;82.20;;;;;;5083016;28;20358;-66
2022/09/16 09:57:36;;;;;;;;;;;16.40;82.50;;;;;;5083264;28;19912;-66
2022/09/16 10:00:05;;;;;;;;;;;16.40;82.40;;;;;;5081438;28;19923;-66
2022/09/16 10:02:30;;;;;;;;;;;16.40;81.80;;;;;;5083650;28;19912;-66
2022/09/16 10:04:56;;;;;;;;;;;16.50;82.40;;;;;;5082104;28;19919;-66
2022/09/16 10:07:24;;;;;;;;;;;16.50;82.00;;;;;;5088548;28;20007;-66
2022/09/16 10:09:50;;;;;;;;;;;16.50;82.20;;;;;;5082448;28;19920;-66
2022/09/16 10:12:24;;;;;;;;;;;16.50;82.20;;;;;;5084275;28;20544;-66
2022/09/16 10:14:50;;;;;;;;;;;16.60;81.70;;;;;;5082414;28;20682;-66
2022/09/16 10:17:16;;;;;;;;;;;16.60;81.00;;;;;;5084576;28;20033;-66
2022/09/16 10:19:56;;;;;;;;;;;16.60;81.80;;;;;;5082588;28;19935;-66
2022/09/16 10:22:26;;;;;;;;;;;16.60;81.60;;;;;;5085190;28;19955;-66
2022/09/16 10:24:57;;;;;;;;;;;16.70;81.40;;;;;;5089439;28;19927;-66
2022/09/16 10:27:25;;;;;;;;;;;16.70;79.80;;;;;;5087380;28;19951;-66
2022/09/16 10:30:09;;;;;;;;;;;16.70;81.10;;;;;;5087316;28;19908;-66
2022/09/16 10:32:58;;;;;;;;;;;16.90;80.20;;;;;;5078385;28;19923;-66
2022/09/16 10:35:28;;;;;;;;;;;16.90;80.10;;;;;;5077706;28;20008;-66
2022/09/16 10:38:04;;;;;;;;;;;16.90;80.20;;;;;;5087751;28;19919;-66
2022/09/16 10:40:30;;;;;;;;;;;17.00;80.40;;;;;;5087986;28;20643;-66
2022/09/16 10:43:00;;;;;;;;;;;17.00;80.30;;;;;;5088026;28;20460;-66
2022/09/16 10:45:28;;;;;;;;;;;17.10;79.90;;;;;;5088725;28;19985;-66
2022/09/16 10:47:55;;;;;;;;;;;17.20;79.70;;;;;;5085824;28;19923;-66
2022/09/16 10:50:21;;;;;;;;;;;17.30;79.50;;;;;;5086624;28;19908;-66
2022/09/16 10:52:47;;;;;;;;;;;17.30;78.50;;;;;;5085267;28;20417;-66
2022/09/16 10:55:20;;;;;;;;;;;17.30;79.40;;;;;;5088322;28;20049;-66
2022/09/16 10:57:46;;;;;;;;;;;17.30;78.50;;;;;;5087059;28;19916;-66
2022/09/16 11:00:22;;;;;;;;;;;17.30;79.00;;;;;;5088129;28;20459;-66
2022/09/16 11:02:48;;;;;;;;;;;17.20;78.50;;;;;;5083893;28;20000;-66
2022/09/16 11:05:13;;;;;;;;;;;17.40;78.00;;;;;;5088066;28;19994;-66
2022/09/16 11:07:51;;;;;;;;;;;17.50;78.40;;;;;;5085207;28;19920;-66
2022/09/16 11:10:29;;;;;;;;;;;17.60;78.20;;;;;;5087619;28;19926;-66
2022/09/16 11:13:13;;;;;;;;;;;17.60;77.90;;;;;;5084469;28;19924;-66
2022/09/16 11:15:53;;;;;;;;;;;17.60;78.30;;;;;;5089420;28;19920;-66
2022/09/16 11:18:27;;;;;;;;;;;17.60;78.50;;;;;;5084110;28;19916;-66
2022/09/16 11:20:59;;;;;;;;;;;17.50;78.50;;;;;;5087181;28;19922;-66
2022/09/16 11:23:31;;;;;;;;;;;17.60;77.90;;;;;;5085434;28;19919;-66
2022/09/16 11:26:02;;;;;;;;;;;17.80;77.20;;;;;;5086975;28;19908;-66
2022/09/16 11:28:27;;;;;;;;;;;17.90;77.30;;;;;;5085676;28;20017;-66
2022/09/16 11:31:16;;;;;;;;;;;18.00;76.80;;;;;;5086255;28;19966;-66
2022/09/16 11:33:45;;;;;;;;;;;18.00;76.40;;;;;;5079281;28;20297;-66
2022/09/16 11:36:19;;;;;;;;;;;18.00;76.60;;;;;;5086263;28;19912;-66
2022/09/16 11:38:47;;;;;;;;;;;18.00;76.90;;;;;;5082662;28;19996;-66
2022/09/16 11:41:21;;;;;;;;;;;18.10;76.60;;;;;;5086340;28;19935;-66
2022/09/16 11:43:50;;;;;;;;;;;18.20;76.10;;;;;;5085159;28;19923;-66
2022/09/16 11:46:22;;;;;;;;;;;18.30;75.90;;;;;;5086920;28;20634;-66
2022/09/16 11:49:06;;;;;;;;;;;18.40;75.40;;;;;;5088227;28;19942;-66
2022/09/16 11:51:50;;;;;;;;;;;18.50;74.50;;;;;;5076524;28;20541;-66
2022/09/16 11:54:32;;;;;;;;;;;18.50;74.80;;;;;;5084623;28;19920;-66
2022/09/16 11:57:08;;;;;;;;;;;18.60;75.10;;;;;;5087121;28;20030;-66
2022/09/16 11:59:36;;;;;;;;;;;18.70;74.80;;;;;;5083950;28;19916;-66
2022/09/16 12:02:12;;;;;;;;;;;18.90;74.30;;;;;;5085526;28;19960;-66
2022/09/16 12:04:44;;;;;;;;;;;19.00;73.70;;;;;;5085162;28;20061;-66
2022/09/16 12:07:09;;;;;;;;;;;19.00;73.70;;;;;;5087554;28;19998;-66
2022/09/16 12:09:38;;;;;;;;;;;19.00;73.80;;;;;;5083884;28;20007;-66
2022/09/16 12:12:21;;;;;;;;;;;18.90;73.10;;;;;;5086130;28;20328;-66
2022/09/16 12:14:50;;;;;;;;;;;18.80;74.70;;;;;;5084421;28;19916;-66
2022/09/16 12:17:27;;;;;;;;;;;18.70;75.30;;;;;;5086412;28;20561;-66
2022/09/16 12:20:01;;;;;;;;;;;18.70;75.60;;;;;;5083656;28;19927;-66
2022/09/16 12:22:33;;;;;;;;;;;18.60;75.70;;;;;;5086807;28;19981;-66
2022/09/16 12:25:10;;;;;;;;;;;18.50;76.60;;;;;;5084309;28;19923;-66
2022/09/16 12:27:39;;;;;;;;;;;18.50;76.10;;;;;;5085842;28;19916;-66
2022/09/16 12:30:12;;;;;;;;;;;18.50;76.50;;;;;;5082821;28;19923;-66
2022/09/16 12:32:37;;;;;;;;;;;18.50;75.90;;;;;;5084889;28;19953;-66
2022/09/16 12:35:11;;;;;;;;;;;18.60;76.00;;;;;;5082808;28;20534;-66
2022/09/16 12:37:45;;;;;;;;;;;18.50;76.00;;;;;;5084957;28;19919;-66
2022/09/16 12:40:43;;;;;;;;;;;18.60;76.00;;;;;;5086373;28;20724;-66
2022/09/16 12:43:14;;;;;;;;;;;18.60;75.90;;;;;;5055834;28;20559;-66
2022/09/16 12:45:40;;;;;;;;;;;18.70;75.90;;;;;;5083458;28;19977;-66
2022/09/16 12:48:05;;;;;;;;;;;18.60;76.10;;;;;;5084896;28;19915;-66
2022/09/16 12:50:46;;;;;;;;;;;18.50;76.50;;;;;;5082568;28;19912;-66
2022/09/16 12:53:18;;;;;;;;;;;18.40;76.80;;;;;;5084514;28;20026;-66
2022/09/16 12:55:49;;;;;;;;;;;18.40;77.10;;;;;;5083955;28;19919;-66
2022/09/16 12:58:23;;;;;;;;;;;18.30;77.20;;;;;;5082655;28;20755;-66
2022/09/16 13:01:07;;;;;;;;;;;18.20;77.40;;;;;;5085045;28;20656;-66
2022/09/16 13:03:36;;;;;;;;;;;18.10;77.40;;;;;;5082590;28;20356;-66
2022/09/16 13:06:04;;;;;;;;;;;18.00;77.40;;;;;;5079978;28;19912;-67
2022/09/16 13:08:31;;;;;;;;;;;18.00;77.30;;;;;;5083065;28;19969;-66
2022/09/16 13:11:02;;;;;;;;;;;17.90;77.50;;;;;;5084048;28;19927;-66
2022/09/16 13:13:33;;;;;;;;;;;17.80;77.90;;;;;;5081793;28;19990;-67
2022/09/16 13:15:59;;;;;;;;;;;17.80;78.30;;;;;;5083708;28;19912;-67
2022/09/16 13:18:43;;;;;;;;;;;17.70;78.20;;;;;;5080985;27;21555;-66
2022/09/16 13:21:26;;;;;;;;;;;17.60;78.40;;;;;;5083301;28;19923;-66
2022/09/16 13:24:03;;;;;;;;;;;17.60;78.50;;;;;;5082438;28;19919;-67
2022/09/16 13:26:42;;;;;;;;;;;17.60;78.90;;;;;;5073324;28;20726;-66
2022/09/16 13:29:26;;;;;;;;;;;17.50;79.00;;;;;;5083981;28;20386;-66
2022/09/16 13:31:51;;;;;;;;;;;17.40;78.60;;;;;;5086066;28;19920;-66
2022/09/16 13:34:18;;;;;;;;;;;17.40;79.10;;;;;;5082520;28;19923;-66
2022/09/16 13:36:43;;;;;;;;;;;17.30;79.40;;;;;;5084464;28;19919;-66
2022/09/16 13:39:13;;;;;;;;;;;17.30;79.70;;;;;;5080131;28;20285;-66
2022/09/16 13:41:43;;;;;;;;;;;17.20;79.10;;;;;;5081289;28;20411;-65
2022/09/16 13:44:29;;;;;;;;;;;17.10;79.30;;;;;;5082154;28;19928;-66
2022/09/16 13:47:05;;;;;;;;;;;17.10;79.90;;;;;;5082287;28;19912;-66
2022/09/16 13:49:33;;;;;;;;;;;17.00;80.10;;;;;;5069678;28;19920;-67
2022/09/16 13:52:08;;;;;;;;;;;17.00;80.20;;;;;;5083601;28;19940;-66
2022/09/16 13:54:50;;;;;;;;;;;17.00;80.30;;;;;;5082484;28;19912;-66
2022/09/16 13:57:18;;;;;;;;;;;16.90;80.20;;;;;;5085266;28;19938;-66
2022/09/16 13:59:44;;;;;;;;;;;16.90;80.10;;;;;;5084456;28;20459;-66
2022/09/16 14:02:13;;;;;;;;;;;16.90;80.50;;;;;;5087119;28;19912;-67
2022/09/16 14:04:41;;;;;;;;;;;16.80;80.60;;;;;;5087685;28;19916;-66
2022/09/16 14:07:09;;;;;;;;;;;16.80;80.60;;;;;;5088127;28;20394;-66
2022/09/16 14:10:01;;;;;;;;;;;16.80;80.50;;;;;;5085804;28;20759;-67
2022/09/16 14:12:45;;;;;;;;;;;16.80;80.50;;;;;;5071730;28;19997;-67
2022/09/16 14:15:12;;;;;;;;;;;16.90;80.60;;;;;;5086016;28;19944;-66
2022/09/16 14:17:37;;;;;;;;;;;16.90;80.60;;;;;;5118572;27;19908;-67
2022/09/16 14:20:03;;;;;;;;;;;16.90;80.30;;;;;;5085013;28;19923;-67
2022/09/16 14:22:30;;;;;;;;;;;17.00;80.20;;;;;;5088829;28;19931;-66
2022/09/16 14:24:56;;;;;;;;;;;17.00;80.20;;;;;;5086180;28;19923;-67
2022/09/16 14:27:21;;;;;;;;;;;17.10;80.30;;;;;;5088006;28;20264;-66
2022/09/16 14:29:57;;;;;;;;;;;17.10;80.20;;;;;;5086104;28;20608;-66
2022/09/16 14:32:27;;;;;;;;;;;17.20;80.70;;;;;;5087768;28;19965;-67